Time;durP1;ratioP1;P1;durP2;ratioP2;P2;SDS_P1;SDS_P2;PMS_P1;PMS_P2;Temp;Humidity;BMP_temperature;BMP_pressure;BME280_temperature;BME280_humidity;BME280_pressure;Samples;Min_cycle;Max_cycle;Signal;HPM_P1;HPM_P2
2023/10/30 00:02:16;;;;;;;9.85;1.52;;;;;;;10.95;100.00;99727.25;5012705;28;20046;-70
2023/10/30 00:04:43;;;;;;;9.00;1.60;;;;;;;10.96;100.00;99728.94;5016652;28;20413;-70
2023/10/30 00:07:10;;;;;;;8.95;1.90;;;;;;;10.95;100.00;99722.84;5023666;28;20128;-70
2023/10/30 00:09:37;;;;;;;9.85;1.75;;;;;;;10.97;100.00;99730.66;5018533;28;20077;-71
2023/10/30 00:12:05;;;;;;;5.25;1.50;;;;;;;10.96;100.00;99726.31;5013780;28;20042;-69
2023/10/30 00:14:33;;;;;;;8.75;1.50;;;;;;;10.96;100.00;99737.72;5004335;28;20046;-70
2023/10/30 00:17:00;;;;;;;10.57;1.70;;;;;;;10.96;100.00;99729.81;5004709;28;20056;-70
2023/10/30 00:19:27;;;;;;;11.23;1.98;;;;;;;10.96;100.00;99740.38;5014386;28;20136;-70
2023/10/30 00:21:54;;;;;;;8.85;1.83;;;;;;;10.95;100.00;99728.09;5020718;28;20129;-70
2023/10/30 00:24:23;;;;;;;7.03;1.67;;;;;;;10.98;100.00;99743.78;5023398;28;20149;-70
2023/10/30 00:26:51;;;;;;;8.65;1.50;;;;;;;10.98;100.00;99748.19;5034296;28;20380;-71
2023/10/30 00:29:18;;;;;;;8.45;1.60;;;;;;;10.99;100.00;99752.53;5037525;28;20432;-71
2023/10/30 00:31:45;;;;;;;11.32;2.20;;;;;;;11.00;100.00;99762.16;5043022;28;20044;-71
2023/10/30 00:34:12;;;;;;;12.00;2.25;;;;;;;11.00;100.00;99765.63;5024735;28;20045;-71
2023/10/30 00:36:39;;;;;;;9.93;1.77;;;;;;;10.99;100.00;99771.00;5040514;28;20115;-71
2023/10/30 00:39:06;;;;;;;9.18;1.95;;;;;;;11.00;100.00;99770.06;5014969;28;20048;-71
2023/10/30 00:41:33;;;;;;;7.10;1.75;;;;;;;11.04;100.00;99784.81;5017835;28;20608;-71
2023/10/30 00:44:00;;;;;;;7.90;1.67;;;;;;;11.06;100.00;99784.75;5008522;28;20049;-71
2023/10/30 00:46:27;;;;;;;10.93;2.00;;;;;;;11.07;100.00;99786.47;5023601;28;20125;-71
2023/10/30 00:48:54;;;;;;;10.32;2.15;;;;;;;11.08;100.00;99788.16;5042219;28;20511;-70
2023/10/30 00:51:21;;;;;;;10.55;1.80;;;;;;;11.10;100.00;99791.56;5035218;28;20131;-70
2023/10/30 00:53:48;;;;;;;12.40;1.70;;;;;;;11.13;100.00;99796.69;5024420;28;20045;-70
2023/10/30 00:56:15;;;;;;;9.60;1.80;;;;;;;11.11;100.00;99794.13;5022289;28;20054;-70
2023/10/30 00:58:43;;;;;;;11.68;2.00;;;;;;;11.13;100.00;99794.06;5009466;28;20072;-70
2023/10/30 01:01:10;;;;;;;9.75;2.13;;;;;;;11.16;100.00;99809.75;5018705;28;20561;-70
2023/10/30 01:03:38;;;;;;;9.30;1.67;;;;;;;11.15;100.00;99803.59;5040927;28;20518;-70
2023/10/30 01:06:05;;;;;;;10.18;1.92;;;;;;;11.16;100.00;99812.38;5015706;28;20041;-71
2023/10/30 01:08:32;;;;;;;7.60;1.73;;;;;;;11.15;100.00;99814.16;5009675;28;20116;-70
2023/10/30 01:11:00;;;;;;;8.70;1.65;;;;;;;11.16;100.00;99820.28;5042985;28;20112;-72
2023/10/30 01:13:27;;;;;;;8.10;1.80;;;;;;;11.17;100.00;99822.84;5027265;28;20116;-70
2023/10/30 01:15:56;;;;;;;10.80;2.15;;;;;;;11.19;100.00;99823.63;5020079;28;20501;-71
2023/10/30 01:18:24;;;;;;;10.20;1.92;;;;;;;11.20;100.00;99829.75;5011492;28;20052;-70
2023/10/30 01:20:51;;;;;;;10.15;1.52;;;;;;;11.22;100.00;99824.41;5023382;28;20038;-70
2023/10/30 01:23:18;;;;;;;11.10;1.95;;;;;;;11.21;100.00;99820.91;5020589;28;20650;-71
2023/10/30 01:25:47;;;;;;;8.35;1.60;;;;;;;11.23;100.00;99831.41;5042617;28;20045;-71
2023/10/30 01:28:15;;;;;;;14.18;2.13;;;;;;;11.24;100.00;99830.47;5027259;28;20057;-70
2023/10/30 01:30:42;;;;;;;7.75;1.52;;;;;;;11.22;100.00;99829.69;5028170;28;20053;-70
2023/10/30 01:33:09;;;;;;;7.78;1.75;;;;;;;11.20;100.00;99829.75;5015013;28;20133;-70
2023/10/30 01:35:37;;;;;;;10.50;1.70;;;;;;;11.17;100.00;99838.66;5024922;28;20103;-70
2023/10/30 01:38:04;;;;;;;11.98;1.92;;;;;;;11.14;100.00;99833.53;5027762;28;20056;-70
2023/10/30 01:40:31;;;;;;;9.52;1.73;;;;;;;11.12;100.00;99835.41;5027267;28;20041;-70
2023/10/30 01:43:00;;;;;;;11.25;1.70;;;;;;;11.09;100.00;99825.00;5030368;28;20044;-70
2023/10/30 01:45:27;;;;;;;7.45;1.60;;;;;;;11.06;100.00;99838.34;5021805;28;20044;-69
2023/10/30 01:47:54;;;;;;;6.75;1.83;;;;;;;11.03;100.00;99834.06;5019566;28;20053;-70
2023/10/30 01:50:24;;;;;;;7.53;1.63;;;;;;;11.01;100.00;99835.06;5025832;28;20412;-70
2023/10/30 01:52:52;;;;;;;7.53;1.50;;;;;;;10.98;100.00;99827.31;5008742;28;20124;-70
2023/10/30 01:55:20;;;;;;;12.32;2.00;;;;;;;10.95;100.00;99840.63;5016138;28;20104;-70
2023/10/30 01:57:47;;;;;;;7.13;2.45;;;;;;;10.93;100.00;99834.59;5017724;28;20702;-70
2023/10/30 02:00:15;;;;;;;8.60;1.63;;;;;;;10.91;100.00;99839.91;5028200;28;20080;-71
2023/10/30 02:02:43;;;;;;;11.23;2.10;;;;;;;10.89;100.00;99839.13;5022829;28;20145;-70
2023/10/30 02:05:13;;;;;;;11.13;1.75;;;;;;;10.87;100.00;99836.59;5014491;28;20372;-70
2023/10/30 02:07:40;;;;;;;7.28;1.60;;;;;;;10.88;100.00;99829.53;5022429;28;20050;-71
2023/10/30 02:10:07;;;;;;;8.75;1.80;;;;;;;10.86;100.00;99834.88;5011287;28;20068;-70
2023/10/30 02:12:35;;;;;;;7.63;1.65;;;;;;;10.87;100.00;99841.00;5031156;28;20544;-70
2023/10/30 02:15:03;;;;;;;10.65;2.08;;;;;;;10.86;100.00;99836.66;5052954;28;20096;-70
2023/10/30 02:17:30;;;;;;;9.38;1.80;;;;;;;10.84;100.00;99836.72;5013885;28;20045;-71
2023/10/30 02:19:57;;;;;;;10.82;1.95;;;;;;;10.85;100.00;99842.88;5013346;28;20051;-70
2023/10/30 02:22:25;;;;;;;10.93;1.92;;;;;;;10.83;100.00;99834.16;5005062;28;20045;-69
2023/10/30 02:24:52;;;;;;;11.15;2.25;;;;;;;10.86;100.00;99836.66;5006415;28;20128;-69
2023/10/30 02:27:19;;;;;;;8.07;1.90;;;;;;;10.87;100.00;99841.84;5028163;28;20451;-71
2023/10/30 02:29:46;;;;;;;13.07;2.50;;;;;;;10.86;100.00;99840.16;5022007;28;20111;-70
2023/10/30 02:32:13;;;;;;;10.70;1.90;;;;;;;10.86;100.00;99837.50;5051119;28;20042;-70
2023/10/30 02:34:40;;;;;;;10.45;1.85;;;;;;;10.87;100.00;99827.84;5031306;28;20061;-72
2023/10/30 02:37:07;;;;;;;9.05;1.77;;;;;;;10.88;100.00;99829.53;5024857;28;20756;-71
2023/10/30 02:39:34;;;;;;;8.10;1.73;;;;;;;10.91;100.00;99818.00;5022597;28;20128;-72
2023/10/30 02:42:04;;;;;;;7.60;1.95;;;;;;;10.92;100.00;99830.25;5023202;28;20052;-69
2023/10/30 02:44:32;;;;;;;9.93;1.90;;;;;;;10.93;100.00;99835.44;5022936;28;20698;-69
2023/10/30 02:46:59;;;;;;;9.98;1.55;;;;;;;10.93;100.00;99845.16;5025114;28;20042;-69
2023/10/30 02:49:27;;;;;;;8.25;1.80;;;;;;;10.94;100.00;99829.25;5012270;28;20046;-71
2023/10/30 02:51:55;;;;;;;12.18;2.05;;;;;;;10.95;100.00;99828.31;5034369;28;20057;-72
2023/10/30 02:54:22;;;;;;;7.65;1.77;;;;;;;10.96;100.00;99816.84;5007783;28;20108;-70
2023/10/30 02:56:49;;;;;;;8.00;1.48;;;;;;;10.97;100.00;99812.41;5017878;28;20406;-70
2023/10/30 02:59:17;;;;;;;7.03;1.90;;;;;;;10.97;100.00;99817.69;5021916;28;20073;-70
2023/10/30 03:01:44;;;;;;;7.47;1.27;;;;;;;10.96;100.00;99808.06;5015519;28;20040;-70
2023/10/30 03:04:13;;;;;;;10.52;2.38;;;;;;;10.96;100.00;99806.28;5022557;28;20049;-70
2023/10/30 03:06:40;;;;;;;11.32;1.90;;;;;;;10.96;100.00;99814.22;5010641;28;20557;-70
2023/10/30 03:09:08;;;;;;;6.57;1.50;;;;;;;10.96;100.00;99822.13;5012375;28;20056;-70
2023/10/30 03:11:35;;;;;;;9.95;1.80;;;;;;;10.98;100.00;99815.00;5022091;28;20072;-70
2023/10/30 03:14:04;;;;;;;10.32;1.67;;;;;;;11.00;100.00;99828.09;5005259;28;20046;-70
2023/10/30 03:16:31;;;;;;;6.55;1.58;;;;;;;11.01;100.00;99824.53;5014858;28;20037;-70
2023/10/30 03:18:58;;;;;;;7.55;1.70;;;;;;;11.01;100.00;99837.72;5008508;28;20115;-70
2023/10/30 03:21:26;;;;;;;7.97;1.70;;;;;;;11.03;100.00;99830.59;5022876;28;20082;-72
2023/10/30 03:23:53;;;;;;;7.07;1.45;;;;;;;11.03;100.00;99831.44;5020198;28;20052;-70
2023/10/30 03:26:20;;;;;;;6.85;1.60;;;;;;;11.04;100.00;99829.63;5023468;28;20066;-70
2023/10/30 03:28:47;;;;;;;9.77;2.15;;;;;;;11.03;100.00;99834.06;5006066;28;20092;-71
2023/10/30 03:31:14;;;;;;;9.95;1.58;;;;;;;11.01;100.00;99832.44;5008651;28;20120;-72
2023/10/30 03:33:41;;;;;;;10.07;1.90;;;;;;;11.00;100.00;99833.38;5016169;28;20399;-70
2023/10/30 03:36:08;;;;;;;10.90;1.58;;;;;;;10.99;100.00;99839.56;5025699;28;20401;-69
2023/10/30 03:38:35;;;;;;;5.63;1.38;;;;;;;10.98;100.00;99835.22;5019139;28;20055;-70
2023/10/30 03:41:02;;;;;;;9.27;1.52;;;;;;;10.96;100.00;99840.56;5016345;28;20124;-70
2023/10/30 03:43:29;;;;;;;9.15;1.60;;;;;;;10.96;100.00;99852.88;5024062;28;20041;-69
2023/10/30 03:45:56;;;;;;;7.70;2.10;;;;;;;10.95;100.00;99849.41;5007151;28;20037;-69
2023/10/30 03:48:24;;;;;;;9.60;1.58;;;;;;;10.97;100.00;99851.97;5019985;28;20084;-70
2023/10/30 03:50:51;;;;;;;10.65;1.83;;;;;;;10.96;100.00;99852.88;5012606;28;20041;-70
2023/10/30 03:53:18;;;;;;;7.72;1.65;;;;;;;10.94;100.00;99852.97;5024300;28;20548;-70
2023/10/30 03:55:45;;;;;;;10.35;2.22;;;;;;;10.92;100.00;99846.91;5041064;28;20072;-71
2023/10/30 03:58:12;;;;;;;12.20;1.90;;;;;;;10.93;100.00;99847.78;5024740;28;20045;-71
2023/10/30 04:00:39;;;;;;;9.77;1.70;;;;;;;10.91;100.00;99852.25;5020840;28;20033;-70
2023/10/30 04:03:07;;;;;;;10.18;1.70;;;;;;;10.91;100.00;99847.84;5010205;28;20064;-70
2023/10/30 04:05:34;;;;;;;4.60;1.40;;;;;;;10.91;100.00;99854.91;5017273;28;20072;-70
2023/10/30 04:08:01;;;;;;;9.20;1.55;;;;;;;10.90;100.00;99855.81;5044883;28;20056;-70
2023/10/30 04:10:28;;;;;;;8.82;1.77;;;;;;;10.87;100.00;99854.19;5024014;28;20577;-70
2023/10/30 04:12:55;;;;;;;11.32;1.70;;;;;;;10.86;100.00;99849.84;5030927;28;20042;-70
2023/10/30 04:15:23;;;;;;;7.13;1.40;;;;;;;10.84;100.00;99849.06;5014176;28;20056;-70
2023/10/30 04:17:50;;;;;;;6.65;1.48;;;;;;;10.83;100.00;99856.13;5025753;28;20053;-71
2023/10/30 04:20:17;;;;;;;7.68;1.65;;;;;;;10.82;100.00;99862.31;5042777;28;20045;-70
2023/10/30 04:22:44;;;;;;;7.63;1.90;;;;;;;10.81;100.00;99857.09;5018946;28;20056;-70
2023/10/30 04:25:12;;;;;;;9.23;1.52;;;;;;;10.82;100.00;99858.81;5023486;28;20045;-70
2023/10/30 04:27:39;;;;;;;6.65;1.35;;;;;;;10.79;100.00;99849.28;5025927;28;20077;-72
2023/10/30 04:30:07;;;;;;;7.32;1.50;;;;;;;10.79;100.00;99848.41;5021048;28;20148;-69
2023/10/30 04:32:34;;;;;;;11.15;1.80;;;;;;;10.77;100.00;99850.28;5028508;28;20536;-72
2023/10/30 04:35:01;;;;;;;8.20;1.63;;;;;;;10.72;100.00;99842.59;5022101;28;20054;-70
2023/10/30 04:37:28;;;;;;;11.20;2.15;;;;;;;10.70;100.00;99845.28;5022471;28;20038;-69
2023/10/30 04:39:56;;;;;;;9.05;1.77;;;;;;;10.69;100.00;99845.38;5033444;28;20138;-71
2023/10/30 04:42:23;;;;;;;9.13;1.50;;;;;;;10.66;100.00;99841.09;5017885;28;20045;-70
2023/10/30 04:44:51;;;;;;;10.13;2.10;;;;;;;10.62;100.00;99851.84;5018905;28;20300;-70
2023/10/30 04:47:20;;;;;;;10.48;1.88;;;;;;;10.60;100.00;99851.91;5024076;28;20140;-71
2023/10/30 04:49:47;;;;;;;10.50;1.60;;;;;;;10.56;100.00;99856.47;5032151;28;20370;-70
2023/10/30 04:52:14;;;;;;;10.55;1.73;;;;;;;10.53;100.00;99843.41;5019616;28;20045;-70
2023/10/30 04:54:41;;;;;;;8.50;1.55;;;;;;;10.50;100.00;99851.50;5012307;28;20042;-70
2023/10/30 04:57:08;;;;;;;7.45;1.65;;;;;;;10.48;100.00;99857.75;5012717;28;20108;-71
2023/10/30 04:59:35;;;;;;;9.77;1.90;;;;;;;10.44;100.00;99854.38;5019690;28;20050;-70
2023/10/30 05:02:02;;;;;;;11.70;2.28;;;;;;;10.41;100.00;99851.91;5030872;28;20049;-70
2023/10/30 05:04:30;;;;;;;9.57;1.77;;;;;;;10.36;100.00;99867.91;5025431;28;20034;-70
2023/10/30 05:06:57;;;;;;;9.27;1.50;;;;;;;10.32;100.00;99860.19;5012373;28;20049;-70
2023/10/30 05:09:24;;;;;;;9.02;1.85;;;;;;;10.27;100.00;99855.13;5044190;28;20414;-70
2023/10/30 05:11:52;;;;;;;7.82;1.70;;;;;;;10.25;100.00;99851.72;5012278;28;20572;-69
2023/10/30 05:14:19;;;;;;;10.85;2.03;;;;;;;10.19;100.00;99857.25;5023981;28;20072;-70
2023/10/30 05:16:46;;;;;;;8.25;1.92;;;;;;;10.15;100.00;99859.16;5023094;28;20535;-70
2023/10/30 05:19:13;;;;;;;10.82;2.15;;;;;;;10.11;100.00;99860.22;5008686;28;20054;-70
2023/10/30 05:21:40;;;;;;;10.52;2.17;;;;;;;10.08;100.00;99852.47;5028185;28;20132;-70
2023/10/30 05:24:07;;;;;;;10.07;2.00;;;;;;;10.07;100.00;99858.66;5032100;28;20073;-70
2023/10/30 05:26:34;;;;;;;7.45;1.70;;;;;;;10.01;100.00;99851.88;5008228;28;20121;-70
2023/10/30 05:29:01;;;;;;;10.15;1.88;;;;;;;10.00;100.00;99854.56;5008818;28;20049;-69
2023/10/30 05:31:29;;;;;;;11.02;2.17;;;;;;;9.95;100.00;99857.41;5012392;28;21906;-73
2023/10/30 05:33:56;;;;;;;17.92;2.53;;;;;;;9.93;100.00;99840.81;5022390;28;20041;-72
2023/10/30 05:36:27;;;;;;;7.47;1.70;;;;;;;9.89;100.00;99845.38;5024452;28;20038;-70
2023/10/30 05:38:54;;;;;;;9.02;1.90;;;;;;;9.86;100.00;99856.03;5019401;28;20637;-70
2023/10/30 05:41:21;;;;;;;8.93;1.80;;;;;;;9.83;100.00;99861.41;5026745;28;20136;-69
2023/10/30 05:43:50;;;;;;;12.15;2.05;;;;;;;9.83;100.00;99853.50;5023526;28;20123;-70
2023/10/30 05:46:17;;;;;;;9.02;1.80;;;;;;;9.86;100.00;99860.44;5025430;28;20033;-70
2023/10/30 05:48:46;;;;;;;8.25;1.77;;;;;;;9.91;100.00;99856.69;5025385;28;20521;-70
2023/10/30 05:51:13;;;;;;;13.80;2.20;;;;;;;9.94;100.00;99863.59;5033995;28;20053;-70
2023/10/30 05:53:43;;;;;;;10.38;2.10;;;;;;;9.92;100.00;99855.75;5023843;28;20044;-69
2023/10/30 05:56:10;;;;;;;13.00;1.85;;;;;;;9.90;100.00;99852.34;5009458;28;20049;-69
2023/10/30 05:58:37;;;;;;;11.82;2.38;;;;;;;9.88;100.00;99843.66;5027314;28;20050;-70
2023/10/30 06:01:04;;;;;;;9.10;1.77;;;;;;;9.90;100.00;99847.09;5023688;28;20041;-70
2023/10/30 06:03:31;;;;;;;7.72;1.58;;;;;;;9.85;100.00;99851.69;5024713;28;20732;-69
2023/10/30 06:05:58;;;;;;;12.73;1.95;;;;;;;9.81;100.00;99859.78;5027571;28;20524;-69
2023/10/30 06:08:25;;;;;;;12.65;2.00;;;;;;;9.80;100.00;99864.19;5009507;28;20045;-70
2023/10/30 06:10:52;;;;;;;8.55;2.17;;;;;;;9.80;100.00;99858.94;5024845;28;20702;-69
2023/10/30 06:13:19;;;;;;;10.57;2.00;;;;;;;9.79;100.00;99860.69;5015739;28;20854;-70
2023/10/30 06:15:46;;;;;;;8.38;1.90;;;;;;;9.77;100.00;99864.31;5013332;28;20483;-70
2023/10/30 06:18:14;;;;;;;13.48;2.00;;;;;;;9.76;100.00;99863.47;5025353;28;20037;-71
2023/10/30 06:20:44;;;;;;;7.97;1.83;;;;;;;9.72;100.00;99856.63;5021667;28;20045;-70
2023/10/30 06:23:11;;;;;;;11.73;2.00;;;;;;;9.66;100.00;99853.38;5020197;28;20045;-70
2023/10/30 06:25:38;;;;;;;8.13;1.70;;;;;;;9.64;100.00;99861.34;5024407;28;20045;-71
2023/10/30 06:28:06;;;;;;;7.93;1.63;;;;;;;9.59;100.00;99865.94;5016961;28;20034;-71
2023/10/30 06:30:33;;;;;;;11.57;2.33;;;;;;;9.53;100.00;99864.41;5020765;28;20124;-71
2023/10/30 06:33:00;;;;;;;9.60;2.17;;;;;;;9.49;100.00;99876.00;5011967;28;20053;-71
2023/10/30 06:35:28;;;;;;;11.50;2.25;;;;;;;9.45;100.00;99872.66;5010702;28;20289;-71
2023/10/30 06:37:55;;;;;;;9.63;1.92;;;;;;;9.43;100.00;99870.97;5006049;28;20046;-71
2023/10/30 06:40:22;;;;;;;14.55;2.38;;;;;;;9.39;100.00;99870.25;5022014;28;20056;-71
2023/10/30 06:42:49;;;;;;;12.90;2.08;;;;;;;9.39;100.00;99877.31;5021501;28;20160;-70
2023/10/30 06:45:16;;;;;;;10.88;1.95;;;;;;;9.37;100.00;99889.66;5006259;28;20052;-71
2023/10/30 06:47:44;;;;;;;8.18;1.92;;;;;;;9.36;100.00;99895.81;5013129;28;20041;-71
2023/10/30 06:50:11;;;;;;;10.88;1.77;;;;;;;9.36;100.00;99901.09;5023888;28;20037;-71
2023/10/30 06:52:38;;;;;;;13.65;1.80;;;;;;;9.36;100.00;99901.09;5011627;28;20046;-72
2023/10/30 06:55:06;;;;;;;10.10;1.70;;;;;;;9.36;100.00;99908.97;5004152;28;20525;-71
2023/10/30 06:57:33;;;;;;;11.27;2.20;;;;;;;9.35;100.00;99902.88;5009369;28;20130;-72
2023/10/30 07:00:00;;;;;;;10.45;1.88;;;;;;;9.36;100.00;99908.97;5026605;28;20042;-71
2023/10/30 07:02:27;;;;;;;11.93;2.13;;;;;;;9.35;100.00;99907.25;5041246;28;20749;-71
2023/10/30 07:04:54;;;;;;;11.35;2.22;;;;;;;9.40;100.00;99918.47;5022347;28;20076;-71
2023/10/30 07:07:21;;;;;;;13.07;1.90;;;;;;;9.45;100.00;99919.13;5016326;28;20052;-71
2023/10/30 07:09:50;;;;;;;10.95;1.75;;;;;;;9.49;100.00;99920.72;5014049;28;20120;-71
2023/10/30 07:12:17;;;;;;;12.48;2.00;;;;;;;9.55;100.00;99912.56;5052467;28;20050;-71
2023/10/30 07:14:44;;;;;;;10.80;2.00;;;;;;;9.61;100.00;99917.56;5018032;28;20048;-71
2023/10/30 07:17:11;;;;;;;10.75;2.45;;;;;;;9.67;100.00;99920.88;5025779;28;20041;-71
2023/10/30 07:19:39;;;;;;;12.50;2.08;;;;;;;9.74;100.00;99922.34;5024367;28;20046;-71
2023/10/30 07:22:06;;;;;;;13.85;2.28;;;;;;;9.79;100.00;99926.50;5022298;28;20048;-71
2023/10/30 07:24:33;;;;;;;20.15;2.92;;;;;;;9.86;100.00;99926.25;5023830;28;20107;-71
2023/10/30 07:27:00;;;;;;;10.77;2.67;;;;;;;9.93;100.00;99925.06;5026227;28;20041;-71
2023/10/30 07:29:27;;;;;;;12.45;2.58;;;;;;;9.99;100.00;99916.91;5017034;28;20049;-71
2023/10/30 07:31:55;;;;;;;7.43;2.20;;;;;;;10.03;100.00;99910.59;5021735;28;20150;-71
2023/10/30 07:34:22;;;;;;;11.50;2.15;;;;;;;10.08;100.00;99905.97;5017984;28;20064;-72
2023/10/30 07:36:49;;;;;;;10.57;2.08;;;;;;;10.13;100.00;99910.19;5020008;28;20437;-72
2023/10/30 07:39:16;;;;;;;8.40;2.25;;;;;;;10.16;100.00;99912.69;5013151;28;20056;-72
2023/10/30 07:41:44;;;;;;;10.23;2.25;;;;;;;10.16;100.00;99910.91;5054000;28;20052;-72
2023/10/30 07:44:11;;;;;;;10.55;1.98;;;;;;;10.18;100.00;99916.09;5017285;28;20073;-72
2023/10/30 07:46:38;;;;;;;8.85;2.42;;;;;;;10.23;100.00;99916.78;5026193;28;20454;-72
2023/10/30 07:49:06;;;;;;;9.13;1.95;;;;;;;10.30;100.00;99914.72;5033742;28;20125;-72
2023/10/30 07:51:33;;;;;;;9.35;1.90;;;;;;;10.37;100.00;99924.97;5038129;28;20057;-72
2023/10/30 07:54:01;;;;;;;14.13;2.25;;;;;;;10.44;100.00;99932.59;5018037;28;20060;-72
2023/10/30 07:56:28;;;;;;;11.48;2.15;;;;;;;10.51;100.00;99934.03;5017888;28;20670;-71
2023/10/30 07:58:55;;;;;;;12.30;2.55;;;;;;;10.57;100.00;99939.03;5017959;28;20050;-72
2023/10/30 08:01:24;;;;;;;14.90;2.63;;;;;;;10.62;100.00;99930.94;5017185;28;20046;-72
2023/10/30 08:03:51;;;;;;;8.43;2.20;;;;;;;10.69;100.00;99935.00;5013478;28;20095;-70
2023/10/30 08:06:18;;;;;;;9.75;2.10;;;;;;;10.75;100.00;99932.06;5024541;28;20387;-71
2023/10/30 08:08:45;;;;;;;13.13;2.22;;;;;;;10.81;100.00;99946.75;5022970;28;20627;-71
2023/10/30 08:11:12;;;;;;;8.75;2.28;;;;;;;10.86;100.00;99945.63;5023677;28;20060;-72
2023/10/30 08:13:39;;;;;;;10.35;2.58;;;;;;;10.90;100.00;99933.13;5030920;28;20191;-72
2023/10/30 08:16:06;;;;;;;10.13;2.15;;;;;;;10.94;100.00;99937.34;5024586;28;20103;-72
2023/10/30 08:18:33;;;;;;;12.70;2.17;;;;;;;10.99;100.00;99940.63;5024410;28;20480;-72
2023/10/30 08:21:00;;;;;;;8.27;1.98;;;;;;;11.02;100.00;99942.28;5037922;28;20048;-72
2023/10/30 08:23:36;;;;;;;7.15;1.77;;;;;;;11.08;100.00;99941.97;5026060;28;20521;-72
2023/10/30 08:26:06;;;;;;;9.55;2.30;;;;;;;11.15;100.00;99929.38;5003889;28;20057;-72
2023/10/30 08:28:34;;;;;;;8.95;1.80;;;;;;;11.25;100.00;99937.69;5021598;28;20059;-72
2023/10/30 08:31:01;;;;;;;8.07;2.00;;;;;;;11.32;100.00;99937.31;5044338;28;20061;-76
2023/10/30 08:33:28;;;;;;;7.88;1.80;;;;;;;11.38;100.00;99935.34;5017186;28;20049;-71
2023/10/30 08:35:56;;;;;;;10.63;1.83;;;;;;;11.46;100.00;99944.56;5033726;28;20053;-71
2023/10/30 08:38:23;;;;;;;7.65;1.90;;;;;;;11.55;100.00;99935.38;5008762;28;21121;-71
2023/10/30 08:40:50;;;;;;;10.65;2.38;;;;;;;11.65;100.00;99941.03;5014133;28;20041;-71
2023/10/30 08:43:17;;;;;;;9.60;1.90;;;;;;;11.76;100.00;99941.38;5025208;28;20120;-71
2023/10/30 08:45:45;;;;;;;10.60;1.77;;;;;;;11.89;100.00;99939.00;5025085;28;20511;-71
2023/10/30 08:48:12;;;;;;;9.88;2.08;;;;;;;12.01;100.00;99945.47;5056004;28;20498;-71
2023/10/30 08:50:46;;;;;;;10.48;2.17;;;;;;;12.15;100.00;99938.63;5029105;28;20111;-71
2023/10/30 08:53:13;;;;;;;11.60;2.10;;;;;;;12.30;100.00;99937.81;5037421;28;20041;-72
2023/10/30 08:55:41;;;;;;;10.13;2.30;;;;;;;12.41;100.00;99934.66;5035630;28;20072;-71
2023/10/30 08:58:08;;;;;;;13.25;1.98;;;;;;;12.49;100.00;99945.66;5017794;28;20555;-71
2023/10/30 09:00:36;;;;;;;8.93;1.90;;;;;;;12.57;100.00;99946.09;5019403;28;20547;-71
2023/10/30 09:03:03;;;;;;;9.48;2.20;;;;;;;12.65;100.00;99952.78;5031240;28;20113;-71
2023/10/30 09:05:31;;;;;;;9.85;2.35;;;;;;;12.71;100.00;99952.47;5025821;28;20164;-71
2023/10/30 09:07:58;;;;;;;8.02;2.05;;;;;;;12.78;100.00;99960.91;5026223;28;20042;-72
2023/10/30 09:10:30;;;;;;;9.50;2.25;;;;;;;12.80;100.00;99959.91;5010718;28;20068;-71
2023/10/30 09:12:57;;;;;;;10.35;1.77;;;;;;;12.82;100.00;99949.22;5029223;28;20128;-71
2023/10/30 09:15:24;;;;;;;8.27;2.15;;;;;;;12.88;100.00;99947.09;5035704;28;20088;-71
2023/10/30 09:17:52;;;;;;;8.85;2.00;;;;;;;12.93;100.00;99943.34;5024286;28;20041;-71
2023/10/30 09:20:20;;;;;;;12.00;2.42;;;;;;;12.98;100.00;99943.97;5020840;28;20567;-72
2023/10/30 09:22:47;;;;;;;9.48;2.45;;;;;;;12.98;100.00;99939.50;5028117;28;20760;-71
2023/10/30 09:25:14;;;;;;;9.02;2.22;;;;;;;12.98;100.00;99943.97;5022171;28;20042;-72
2023/10/30 09:27:41;;;;;;;11.30;2.10;;;;;;;12.96;100.00;99948.47;5023986;28;20150;-71
2023/10/30 09:30:09;;;;;;;13.30;2.03;;;;;;;12.96;100.00;99946.69;5026749;28;20049;-71
2023/10/30 09:32:36;;;;;;;13.63;2.75;;;;;;;12.99;100.00;99943.88;5018739;28;20650;-71
2023/10/30 09:35:04;;;;;;;14.73;3.40;;;;;;;13.01;100.00;99939.34;5025618;28;20038;-71
2023/10/30 09:37:31;;;;;;;11.48;2.47;;;;;;;13.02;100.00;99942.88;5025253;28;20402;-72
2023/10/30 09:40:00;;;;;;;10.80;2.28;;;;;;;13.05;100.00;99945.31;5025610;28;20589;-71
2023/10/30 09:42:27;;;;;;;12.60;2.28;;;;;;;13.09;100.00;99946.00;5022214;28;20083;-72
2023/10/30 09:44:54;;;;;;;10.10;2.17;;;;;;;13.11;100.00;99946.78;5014894;28;20046;-71
2023/10/30 09:47:25;;;;;;;15.20;2.30;;;;;;;13.14;100.00;99939.53;5016294;28;20076;-72
2023/10/30 09:49:54;;;;;;;12.35;2.00;;;;;;;13.16;100.00;99942.09;5011209;28;20046;-72
2023/10/30 09:52:23;;;;;;;13.80;2.10;;;;;;;13.17;100.00;99938.53;5008493;28;20416;-72
2023/10/30 09:54:50;;;;;;;13.88;2.42;;;;;;;13.20;100.00;99933.91;5014260;28;20061;-72
2023/10/30 09:57:18;;;;;;;7.70;2.08;;;;;;;13.26;100.00;99938.00;5024667;28;20589;-71
2023/10/30 09:59:53;;;;;;;12.00;2.13;;;;;;;13.31;100.00;99935.94;5027272;28;20038;-71
2023/10/30 10:02:21;;;;;;;13.45;2.20;;;;;;;13.32;100.00;99932.34;5027859;28;20134;-72
2023/10/30 10:04:48;;;;;;;10.27;2.03;;;;;;;13.33;100.00;99931.41;5025524;28;20501;-72
2023/10/30 10:07:18;;;;;;;9.82;2.40;;;;;;;13.36;100.00;99928.59;5026329;28;20111;-72
2023/10/30 10:10:03;;;;;;;9.68;2.05;;;;;;;13.41;100.00;99924.84;5042379;28;20049;-72
2023/10/30 10:12:33;;;;;;;15.55;2.42;;;;;;;13.42;100.00;99930.09;5027389;28;20042;-72
2023/10/30 10:15:08;;;;;;;9.10;2.00;;;;;;;13.46;100.00;99918.38;5027360;28;20049;-71
2023/10/30 10:17:46;;;;;;;12.23;2.35;;;;;;;13.56;100.00;99918.72;5040503;28;20059;-71
2023/10/30 10:20:13;;;;;;;11.05;1.90;;;;;;;13.64;100.00;99911.16;5017485;28;20399;-72
2023/10/30 10:22:40;;;;;;;12.80;2.40;;;;;;;13.73;100.00;99909.78;5002407;28;20111;-72
2023/10/30 10:25:10;;;;;;;10.05;2.00;;;;;;;13.82;99.88;99903.94;5025056;28;20100;-72
2023/10/30 10:27:38;;;;;;;13.93;3.15;;;;;;;13.89;100.00;99909.72;5009092;28;20046;-71
2023/10/30 10:30:06;;;;;;;15.50;2.88;;;;;;;13.96;99.84;99902.25;5013934;28;20044;-71
2023/10/30 10:32:33;;;;;;;11.50;2.55;;;;;;;14.03;99.95;99903.63;5015371;28;20506;-71
2023/10/30 10:35:02;;;;;;;13.75;3.08;;;;;;;14.10;99.25;99901.44;5005593;28;20652;-71
2023/10/30 10:37:29;;;;;;;10.80;2.20;;;;;;;14.15;98.66;99896.72;5025052;28;20052;-71
2023/10/30 10:39:56;;;;;;;9.32;2.03;;;;;;;14.21;98.88;99899.00;5026036;28;20065;-71
2023/10/30 10:42:27;;;;;;;9.63;2.15;;;;;;;14.30;98.30;99900.25;5023298;28;20519;-72
2023/10/30 10:44:57;;;;;;;9.48;1.92;;;;;;;14.35;98.23;99894.66;5023497;28;20052;-70
2023/10/30 10:47:24;;;;;;;16.27;2.10;;;;;;;14.40;97.98;99903.16;5008059;28;20049;-71
2023/10/30 10:49:51;;;;;;;11.38;2.20;;;;;;;14.39;97.42;99893.53;5020179;28;20131;-70
2023/10/30 10:52:20;;;;;;;17.52;2.10;;;;;;;14.35;96.81;99895.50;5012355;28;20571;-70
2023/10/30 10:54:54;;;;;;;9.75;1.70;;;;;;;14.31;97.08;99894.00;5009360;28;20532;-71
2023/10/30 10:57:21;;;;;;;8.10;1.60;;;;;;;14.27;97.29;99885.38;5005876;28;20046;-72
2023/10/30 11:00:06;;;;;;;12.52;2.00;;;;;;;14.25;97.20;99875.78;5011438;28;20044;-72
2023/10/30 11:02:38;;;;;;;6.78;1.70;;;;;;;14.21;96.94;99875.13;5024835;28;20037;-71
2023/10/30 11:05:07;;;;;;;12.23;1.88;;;;;;;14.21;97.81;99876.94;5042333;28;20049;-71
2023/10/30 11:07:51;;;;;;;8.88;1.83;;;;;;;14.21;97.49;99869.00;5019710;28;20042;-72
2023/10/30 11:10:52;;;;;;;8.45;2.25;;;;;;;14.21;97.01;99869.84;5015708;28;20038;-71
2023/10/30 11:13:25;;;;;;;9.20;1.80;;;;;;;14.18;97.47;99875.34;5010251;28;20152;-71
2023/10/30 11:16:06;;;;;;;5.50;1.38;;;;;;;14.14;97.73;99869.34;5027232;28;20052;-70
2023/10/30 11:18:33;;;;;;;7.78;1.67;;;;;;;14.14;97.58;99865.88;5022787;28;20073;-71
2023/10/30 11:21:16;;;;;;;6.05;1.35;;;;;;;14.16;97.19;99869.28;5019919;28;20045;-71
2023/10/30 11:23:56;;;;;;;12.18;1.98;;;;;;;14.21;97.53;99858.41;5016079;28;20050;-72
2023/10/30 11:26:29;;;;;;;7.50;1.80;;;;;;;14.24;97.38;99852.91;5002386;28;20053;-71
2023/10/30 11:29:00;;;;;;;11.73;1.92;;;;;;;14.27;97.26;99850.91;5015651;28;20119;-70